createdAt,value
2023-03-18T00:00:24.000Z,0.00
2023-03-18T00:05:18.000Z,0.00
2023-03-18T00:10:10.000Z,0.00
2023-03-18T00:15:04.000Z,0.00
2023-03-18T00:19:58.000Z,0.00
2023-03-18T00:24:53.000Z,0.00
2023-03-18T00:29:47.000Z,0.00
2023-03-18T00:34:41.000Z,0.00
2023-03-18T00:39:36.000Z,0.00
2023-03-18T00:44:29.000Z,0.00
2023-03-18T00:49:24.000Z,0.00
2023-03-18T00:54:18.000Z,0.00
2023-03-18T00:59:12.000Z,0.00
2023-03-18T01:04:06.000Z,0.00
2023-03-18T01:09:00.000Z,0.00
2023-03-18T01:13:54.000Z,0.00
2023-03-18T01:18:48.000Z,0.00
2023-03-18T01:23:42.000Z,0.00
2023-03-18T01:28:36.000Z,0.00
2023-03-18T01:33:28.000Z,0.00
2023-03-18T01:38:22.000Z,0.00
2023-03-18T01:43:16.000Z,0.00
2023-03-18T01:48:08.000Z,0.00
2023-03-18T01:53:02.000Z,0.00
2023-03-18T01:57:56.000Z,0.00
2023-03-18T02:02:49.000Z,0.00
2023-03-18T02:07:45.000Z,0.00
2023-03-18T02:12:36.000Z,0.00
2023-03-18T02:17:28.000Z,0.00
2023-03-18T02:22:22.000Z,0.00
2023-03-18T02:27:15.000Z,0.00
2023-03-18T02:32:10.000Z,0.00
2023-03-18T02:37:03.000Z,0.00
2023-03-18T02:41:58.000Z,0.00
2023-03-18T02:46:52.000Z,0.00
2023-03-18T02:51:46.000Z,0.00
2023-03-18T02:56:40.000Z,0.00
2023-03-18T03:01:34.000Z,0.00
2023-03-18T03:06:28.000Z,0.00
2023-03-18T03:11:23.000Z,0.00
2023-03-18T03:16:17.000Z,0.00
2023-03-18T03:21:10.000Z,0.00
2023-03-18T03:26:04.000Z,0.00
2023-03-18T03:30:58.000Z,0.00
2023-03-18T03:35:52.000Z,0.00
2023-03-18T03:40:46.000Z,0.00
2023-03-18T03:45:40.000Z,0.00
2023-03-18T03:50:31.000Z,0.00
2023-03-18T03:55:23.000Z,0.00
2023-03-18T04:00:16.000Z,0.00
2023-03-18T04:05:10.000Z,0.00
2023-03-18T04:10:06.000Z,0.00
2023-03-18T04:14:56.000Z,0.00
2023-03-18T04:19:50.000Z,0.00
2023-03-18T04:24:45.000Z,0.00
2023-03-18T04:29:39.000Z,0.00
2023-03-18T04:34:33.000Z,0.00
2023-03-18T04:39:27.000Z,0.00
2023-03-18T04:44:20.000Z,0.00
2023-03-18T04:49:14.000Z,0.00
2023-03-18T04:54:07.000Z,0.00
2023-03-18T04:59:02.000Z,0.00
2023-03-18T05:03:59.000Z,0.00
2023-03-18T05:08:51.000Z,0.00
2023-03-18T05:13:45.000Z,0.00
2023-03-18T05:18:38.000Z,0.83
2023-03-18T05:23:32.000Z,2.50
2023-03-18T05:28:26.000Z,6.67
2023-03-18T05:33:22.000Z,14.17
2023-03-18T05:38:09.000Z,25.00
2023-03-18T05:43:03.000Z,40.00
2023-03-18T05:47:57.000Z,58.33
2023-03-18T05:52:52.000Z,84.17
2023-03-18T05:57:46.000Z,112.50
2023-03-18T06:02:40.000Z,150.00
2023-03-18T06:07:32.000Z,188.33
2023-03-18T06:12:26.000Z,215.00
2023-03-18T06:17:20.000Z,245.00
2023-03-18T06:22:13.000Z,300.00
2023-03-18T06:27:10.000Z,343.33
2023-03-18T06:31:59.000Z,373.33
2023-03-18T06:36:53.000Z,395.83
2023-03-18T06:41:47.000Z,420.00
2023-03-18T06:46:41.000Z,438.33
2023-03-18T06:51:34.000Z,448.33
2023-03-18T06:56:28.000Z,465.00
2023-03-18T07:01:22.000Z,487.50
2023-03-18T07:06:16.000Z,505.00
2023-03-18T07:11:10.000Z,525.83
2023-03-18T07:16:04.000Z,544.17
2023-03-18T07:20:57.000Z,560.00
2023-03-18T07:25:51.000Z,586.67
2023-03-18T07:30:44.000Z,621.67
2023-03-18T07:35:38.000Z,648.33
2023-03-18T07:40:33.000Z,669.17
2023-03-18T07:45:26.000Z,686.67
2023-03-18T07:50:23.000Z,656.67
2023-03-18T07:55:13.000Z,724.17
2023-03-18T08:00:06.000Z,759.17
2023-03-18T08:05:00.000Z,782.50
2023-03-18T08:09:54.000Z,780.83
2023-03-18T08:14:48.000Z,879.17
2023-03-18T08:19:42.000Z,955.83
2023-03-18T08:24:36.000Z,1010.83
2023-03-18T08:29:31.000Z,1000.00
2023-03-18T08:34:25.000Z,1004.17
2023-03-18T08:39:19.000Z,1031.67
2023-03-18T08:44:13.000Z,1381.67
2023-03-18T08:49:08.000Z,1050.83
2023-03-18T08:54:02.000Z,1040.83
2023-03-18T08:58:56.000Z,1567.50
2023-03-18T09:03:50.000Z,1550.83
2023-03-18T09:08:44.000Z,1919.17
2023-03-18T09:13:39.000Z,2554.17
2023-03-18T09:18:34.000Z,3338.33
2023-03-18T09:23:29.000Z,3355.83
2023-03-18T09:28:24.000Z,3099.17
2023-03-18T09:33:17.000Z,3010.83
2023-03-18T09:38:12.000Z,3135.00
2023-03-18T09:43:06.000Z,2950.00
2023-03-18T09:48:00.000Z,3261.67
2023-03-18T09:52:54.000Z,3532.50
2023-03-18T09:57:49.000Z,3340.83
2023-03-18T10:02:44.000Z,4386.67
2023-03-18T10:07:38.000Z,3405.00
2023-03-18T10:12:33.000Z,3651.67
2023-03-18T10:17:28.000Z,3832.50
2023-03-18T10:22:23.000Z,3095.00
2023-03-18T10:27:17.000Z,2953.33
2023-03-18T10:32:11.000Z,2781.67
2023-03-18T10:37:04.000Z,2757.50
2023-03-18T10:41:58.000Z,3714.17
2023-03-18T10:46:53.000Z,3851.67
2023-03-18T10:51:47.000Z,3024.17
2023-03-18T10:56:41.000Z,2884.17
2023-03-18T11:01:34.000Z,2814.17
2023-03-18T11:06:28.000Z,2963.33
2023-03-18T11:11:22.000Z,3735.00
2023-03-18T11:16:17.000Z,4846.67
2023-03-18T11:21:12.000Z,5623.33
2023-03-18T11:26:08.000Z,6163.33
2023-03-18T11:31:04.000Z,4589.17
2023-03-18T11:35:57.000Z,5060.00
2023-03-18T11:40:52.000Z,4740.00
2023-03-18T11:45:48.000Z,6168.33
2023-03-18T11:50:42.000Z,5430.00
2023-03-18T11:55:40.000Z,6142.50
2023-03-18T12:00:33.000Z,2605.83
2023-03-18T12:05:21.000Z,2157.50
2023-03-18T12:10:14.000Z,1760.00
2023-03-18T12:15:10.000Z,2074.17
2023-03-18T12:20:01.000Z,1979.17
2023-03-18T12:24:53.000Z,2773.33
2023-03-18T12:29:45.000Z,2390.00
2023-03-18T12:34:40.000Z,4436.67
2023-03-18T12:39:37.000Z,3685.83
2023-03-18T12:44:34.000Z,3655.83
2023-03-18T12:49:21.000Z,3354.17
2023-03-18T12:54:15.000Z,2342.50
2023-03-18T12:59:09.000Z,1882.50
2023-03-18T13:04:01.000Z,1918.33
2023-03-18T13:08:54.000Z,2210.83
2023-03-18T13:13:48.000Z,2040.83
2023-03-18T13:18:42.000Z,2754.17
2023-03-18T13:23:36.000Z,2025.00
2023-03-18T13:28:29.000Z,1468.33
2023-03-18T13:33:23.000Z,1055.00
2023-03-18T13:38:19.000Z,1253.33
2023-03-18T13:43:10.000Z,1461.67
2023-03-18T13:48:06.000Z,1358.33
2023-03-18T13:52:57.000Z,1956.67
2023-03-18T13:57:51.000Z,1671.67
2023-03-18T14:02:46.000Z,3600.83
2023-03-18T14:07:39.000Z,4283.33
2023-03-18T14:12:37.000Z,3531.67
2023-03-18T14:17:28.000Z,2118.33
2023-03-18T14:22:25.000Z,4100.83
2023-03-18T14:27:16.000Z,2070.00
2023-03-18T14:32:10.000Z,1533.33
2023-03-18T14:37:05.000Z,1358.33
2023-03-18T14:42:01.000Z,1562.50
2023-03-18T14:46:51.000Z,1260.83
2023-03-18T14:51:43.000Z,1329.17
2023-03-18T14:56:37.000Z,1440.00
2023-03-18T15:01:31.000Z,2525.00
2023-03-18T15:06:25.000Z,2569.17
2023-03-18T15:11:22.000Z,6706.67
2023-03-18T15:16:11.000Z,8460.83
2023-03-18T15:21:11.000Z,8375.83
2023-03-18T15:26:03.000Z,2370.00
2023-03-18T15:30:57.000Z,2169.17
2023-03-18T15:35:50.000Z,1720.00
2023-03-18T15:40:42.000Z,1420.83
2023-03-18T15:45:33.000Z,1280.00
2023-03-18T15:50:24.000Z,1050.83
2023-03-18T15:55:18.000Z,1128.33
2023-03-18T16:00:11.000Z,1825.83
2023-03-18T16:05:06.000Z,1249.17
2023-03-18T16:09:58.000Z,1245.83
2023-03-18T16:14:55.000Z,1294.17
2023-03-18T16:19:46.000Z,1435.83
2023-03-18T16:24:39.000Z,6525.00
2023-03-18T16:29:34.000Z,5475.83
2023-03-18T16:34:27.000Z,5120.83
2023-03-18T16:39:21.000Z,916.67
2023-03-18T16:44:14.000Z,4706.67
2023-03-18T16:49:08.000Z,2172.50
2023-03-18T16:54:04.000Z,784.17
2023-03-18T16:58:55.000Z,564.17
2023-03-18T17:03:46.000Z,1073.33
2023-03-18T17:08:41.000Z,381.67
2023-03-18T17:13:31.000Z,746.67
2023-03-18T17:18:25.000Z,260.83
2023-03-18T17:23:19.000Z,224.17
2023-03-18T17:28:13.000Z,162.50
2023-03-18T17:33:08.000Z,89.17
2023-03-18T17:38:02.000Z,55.00
2023-03-18T17:42:56.000Z,33.33
2023-03-18T17:47:50.000Z,20.00
2023-03-18T17:52:45.000Z,9.17
2023-03-18T17:57:38.000Z,4.17
2023-03-18T18:02:32.000Z,1.67
2023-03-18T18:07:26.000Z,0.83
2023-03-18T18:12:21.000Z,0.00
2023-03-18T18:17:14.000Z,0.00
2023-03-18T18:22:08.000Z,0.00
2023-03-18T18:27:03.000Z,0.00
2023-03-18T18:31:56.000Z,0.00
2023-03-18T18:36:51.000Z,0.00
2023-03-18T18:41:45.000Z,0.00
2023-03-18T18:46:39.000Z,0.00
2023-03-18T18:51:33.000Z,0.00
2023-03-18T18:56:27.000Z,0.00
2023-03-18T19:01:22.000Z,0.00
2023-03-18T19:06:16.000Z,0.00
2023-03-18T19:11:08.000Z,0.00
2023-03-18T19:16:03.000Z,0.00
2023-03-18T19:20:57.000Z,0.00
2023-03-18T19:25:51.000Z,0.00
2023-03-18T19:30:45.000Z,0.00
2023-03-18T19:35:40.000Z,0.00
2023-03-18T19:40:31.000Z,0.00
2023-03-18T19:45:25.000Z,0.00
2023-03-18T19:50:20.000Z,0.00
2023-03-18T19:55:12.000Z,0.00
2023-03-18T20:00:06.000Z,0.00
2023-03-18T20:05:00.000Z,0.00
2023-03-18T20:09:53.000Z,0.00
2023-03-18T20:14:47.000Z,0.00
2023-03-18T20:19:41.000Z,0.00
2023-03-18T20:24:34.000Z,0.00
2023-03-18T20:29:26.000Z,0.00
2023-03-18T20:34:19.000Z,0.00
2023-03-18T20:39:14.000Z,0.00
2023-03-18T20:44:08.000Z,0.00
2023-03-18T20:49:02.000Z,0.00
2023-03-18T20:53:54.000Z,0.00
2023-03-18T20:58:48.000Z,0.00
2023-03-18T21:03:42.000Z,0.00
2023-03-18T21:08:36.000Z,0.00
2023-03-18T21:13:30.000Z,0.00
2023-03-18T21:18:24.000Z,0.00
2023-03-18T21:23:18.000Z,0.00
2023-03-18T21:28:11.000Z,0.00
2023-03-18T21:33:05.000Z,0.00
2023-03-18T21:37:59.000Z,0.00
2023-03-18T21:42:54.000Z,0.00
2023-03-18T21:47:51.000Z,0.00
2023-03-18T21:52:41.000Z,0.00
2023-03-18T21:57:35.000Z,0.00
2023-03-18T22:02:29.000Z,0.00
2023-03-18T22:07:23.000Z,0.00
2023-03-18T22:12:16.000Z,0.00
2023-03-18T22:17:11.000Z,0.00
2023-03-18T22:22:05.000Z,0.00
2023-03-18T22:26:59.000Z,0.00
2023-03-18T22:31:53.000Z,0.00
2023-03-18T22:36:48.000Z,0.00
2023-03-18T22:41:42.000Z,0.00
2023-03-18T22:46:36.000Z,0.00
2023-03-18T22:51:30.000Z,0.00
2023-03-18T22:56:24.000Z,0.00
2023-03-18T23:01:18.000Z,0.00
2023-03-18T23:06:10.000Z,0.00
2023-03-18T23:11:04.000Z,0.00
2023-03-18T23:15:58.000Z,0.00
2023-03-18T23:20:52.000Z,0.00
2023-03-18T23:25:46.000Z,0.00
2023-03-18T23:30:40.000Z,0.00
2023-03-18T23:35:34.000Z,0.00
2023-03-18T23:40:29.000Z,0.00
2023-03-18T23:45:22.000Z,0.00
2023-03-18T23:50:16.000Z,0.00
2023-03-18T23:55:09.000Z,0.00
